Time;durP1;ratioP1;P1;durP2;ratioP2;P2;SDS_P1;SDS_P2;PMS_P1;PMS_P2;Temp;Humidity;BMP_temperature;BMP_pressure;BME280_temperature;BME280_humidity;BME280_pressure;Samples;Min_cycle;Max_cycle;Signal;HPM_P1;HPM_P2
2023/09/07 00:01:45;;;;;;;2.80;2.45;;;;;;;10.60;69.58;99758.59;5118596;27;20045;-66
2023/09/07 00:04:12;;;;;;;6.28;2.97;;;;;;;10.59;69.41;99766.69;5118655;27;20481;-68
2023/09/07 00:06:37;;;;;;;3.45;2.08;;;;;;;10.57;69.60;99765.94;5118516;27;20046;-66
2023/09/07 00:09:05;;;;;;;2.45;1.65;;;;;;;10.57;69.69;99779.28;5118573;27;20118;-67
2023/09/07 00:11:30;;;;;;;2.95;1.25;;;;;;;10.51;69.93;99770.72;5118851;27;20049;-69
2023/09/07 00:13:58;;;;;;;2.80;1.75;;;;;;;10.52;69.73;99776.91;5119049;27;20038;-67
2023/09/07 00:16:23;;;;;;;2.95;1.90;;;;;;;10.50;70.26;99776.16;5118469;27;20064;-66
2023/09/07 00:18:49;;;;;;;2.72;1.70;;;;;;;10.47;70.06;99774.59;5100447;27;20890;-76
2023/09/07 00:21:14;;;;;;;5.10;1.95;;;;;;;10.48;70.70;99775.44;5119522;27;20041;-76
2023/09/07 00:23:40;;;;;;;5.70;2.58;;;;;;;10.46;70.64;99782.69;5118486;27;20042;-71
2023/09/07 00:26:05;;;;;;;3.92;2.25;;;;;;;10.44;70.25;99780.13;5118566;27;20054;-70
2023/09/07 00:28:30;;;;;;;5.47;1.63;;;;;;;10.41;71.13;99785.66;5118763;27;20031;-69
2023/09/07 00:30:55;;;;;;;2.53;1.70;;;;;;;10.37;70.99;99784.19;5119678;27;20042;-76
2023/09/07 00:33:20;;;;;;;4.05;2.00;;;;;;;10.35;71.22;99791.41;5119443;27;20515;-74
2023/09/07 00:35:46;;;;;;;6.65;1.80;;;;;;;10.34;71.30;99784.38;5100354;27;20046;-77
2023/09/07 00:38:11;;;;;;;3.05;1.48;;;;;;;10.33;71.54;99796.00;5084185;27;20516;-77
2023/09/07 00:40:36;;;;;;;2.35;1.70;;;;;;;10.30;71.45;99793.53;5102066;27;20055;-77
2023/09/07 00:43:04;;;;;;;4.32;1.73;;;;;;;10.28;71.45;99795.44;5119251;27;20046;-74
2023/09/07 00:45:29;;;;;;;5.28;2.38;;;;;;;10.27;71.72;99793.72;5100206;27;20034;-71
2023/09/07 00:47:55;;;;;;;2.03;1.48;;;;;;;10.25;72.10;99789.47;5099750;27;20059;-71
2023/09/07 00:50:22;;;;;;;4.40;1.95;;;;;;;10.22;72.34;99792.34;5100173;27;20054;-76
2023/09/07 00:52:47;;;;;;;3.15;1.92;;;;;;;10.20;72.99;99819.09;5117945;27;20412;-72
2023/09/07 00:55:13;;;;;;;5.13;1.90;;;;;;;10.17;72.72;99792.63;5099715;27;20047;-69
2023/09/07 00:57:39;;;;;;;2.33;1.58;;;;;;;10.14;72.86;99793.69;5099818;27;20043;-73
2023/09/07 01:00:07;;;;;;;2.10;1.65;;;;;;;10.11;73.12;99809.88;5118121;27;20057;-75
2023/09/07 01:02:33;;;;;;;2.97;1.73;;;;;;;10.08;73.06;99804.75;5082499;27;20055;-75
2023/09/07 01:04:59;;;;;;;3.95;2.05;;;;;;;10.06;73.27;99804.00;5119002;27;20038;-71
2023/09/07 01:07:30;;;;;;;3.83;1.85;;;;;;;10.04;73.92;99808.59;5100616;27;20757;-71
2023/09/07 01:09:57;;;;;;;4.10;2.17;;;;;;;10.01;73.58;99818.59;5119481;27;20046;-80
2023/09/07 01:12:23;;;;;;;3.47;2.13;;;;;;;9.97;74.08;99822.41;5118882;27;20052;-76
2023/09/07 01:14:48;;;;;;;5.57;2.08;;;;;;;9.96;74.38;99815.34;5100897;27;20054;-74
2023/09/07 01:17:14;;;;;;;2.65;2.40;;;;;;;9.93;74.37;99821.72;5098423;27;20066;-70
2023/09/07 01:19:40;;;;;;;4.90;2.00;;;;;;;9.91;74.46;99826.34;5081770;27;20038;-69
2023/09/07 01:22:09;;;;;;;7.57;2.90;;;;;;;9.90;75.55;99832.59;5117357;27;20042;-69
2023/09/07 01:24:35;;;;;;;5.20;3.05;;;;;;;9.86;75.17;99827.56;5117126;27;20049;-68
2023/09/07 01:27:03;;;;;;;6.35;3.38;;;;;;;9.84;75.38;99823.19;5113970;27;20515;-72
2023/09/07 01:29:30;;;;;;;5.82;3.70;;;;;;;9.83;75.46;99857.91;5081715;27;20030;-73
2023/09/07 01:31:56;;;;;;;6.00;3.00;;;;;;;9.81;75.95;99834.06;5118153;27;20068;-74
2023/09/07 01:34:22;;;;;;;5.05;2.88;;;;;;;9.79;76.06;99830.66;5117220;27;20404;-78
2023/09/07 01:36:47;;;;;;;5.97;3.22;;;;;;;9.78;76.55;99828.94;5100125;27;20465;-73
2023/09/07 01:39:12;;;;;;;5.47;3.17;;;;;;;9.75;76.88;99839.78;5099895;27;20053;-73
2023/09/07 01:41:37;;;;;;;4.85;2.88;;;;;;;9.73;77.00;99841.69;5093323;27;20514;-69
2023/09/07 01:44:03;;;;;;;7.20;2.17;;;;;;;9.67;77.22;99858.06;5095953;27;20047;-68
2023/09/07 01:46:28;;;;;;;4.88;2.25;;;;;;;9.68;77.07;99838.47;5063593;27;20050;-68
2023/09/07 01:48:53;;;;;;;2.72;2.15;;;;;;;9.66;77.19;99837.72;5104353;27;20042;-77
2023/09/07 01:51:19;;;;;;;3.63;1.55;;;;;;;9.68;77.82;99842.94;5081033;27;20058;-69
2023/09/07 01:53:47;;;;;;;6.63;3.35;;;;;;;9.68;77.89;99858.91;5118177;27;20050;-70
2023/09/07 01:56:12;;;;;;;4.90;1.70;;;;;;;9.69;78.04;99840.19;5116897;27;20038;-75
2023/09/07 01:58:37;;;;;;;3.92;1.95;;;;;;;9.71;77.82;99848.91;5099040;27;20046;-77
2023/09/07 02:01:03;;;;;;;2.45;1.60;;;;;;;9.74;78.17;99847.88;5099099;27;20041;-76
2023/09/07 02:03:29;;;;;;;4.95;1.77;;;;;;;9.75;78.01;99845.09;5099678;27;20824;-73
2023/09/07 02:05:54;;;;;;;2.42;1.90;;;;;;;9.78;78.01;99876.88;5099063;27;20037;-77
2023/09/07 02:08:20;;;;;;;3.08;1.88;;;;;;;9.85;77.76;99869.31;5117423;27;20124;-77
2023/09/07 02:10:45;;;;;;;8.35;2.70;;;;;;;9.87;77.89;99954.44;5116844;27;20034;-75
2023/09/07 02:13:11;;;;;;;3.05;1.70;;;;;;;9.93;77.91;99853.69;5095663;27;20581;-77
2023/09/07 02:15:38;;;;;;;7.38;2.08;;;;;;;9.97;78.37;99863.19;5118118;27;20042;-76
2023/09/07 02:18:05;;;;;;;2.80;1.60;;;;;;;10.01;78.18;99862.06;5073173;27;20043;-66
2023/09/07 02:20:34;;;;;;;4.28;1.77;;;;;;;10.10;78.18;99860.59;5076766;27;20795;-66
2023/09/07 02:23:00;;;;;;;3.85;1.58;;;;;;;10.16;77.97;99860.16;5107563;27;20054;-66
2023/09/07 02:25:25;;;;;;;3.38;1.77;;;;;;;10.23;77.59;99845.53;5097645;27;20054;-66
2023/09/07 02:27:50;;;;;;;2.78;1.67;;;;;;;10.32;77.57;99871.56;5115945;27;20046;-66
2023/09/07 02:30:16;;;;;;;3.05;1.77;;;;;;;10.37;77.26;99863.28;5097393;27;20051;-65
2023/09/07 02:32:44;;;;;;;1.70;1.60;;;;;;;10.43;76.81;99860.19;5077873;27;20039;-66
2023/09/07 02:35:09;;;;;;;2.17;1.30;;;;;;;10.45;76.89;99844.94;5096678;27;20054;-71
2023/09/07 02:37:36;;;;;;;5.45;2.08;;;;;;;10.50;76.71;99869.47;5077374;27;20035;-71
2023/09/07 02:40:07;;;;;;;3.53;1.92;;;;;;;10.52;76.17;99831.09;5094214;27;20047;-67
2023/09/07 02:42:32;;;;;;;2.95;2.03;;;;;;;10.52;76.36;99863.06;5077076;27;20453;-74
2023/09/07 02:44:57;;;;;;;5.38;2.10;;;;;;;10.55;76.16;99872.69;5110667;27;20042;-71
2023/09/07 02:47:23;;;;;;;4.18;2.17;;;;;;;10.55;75.89;99880.69;5116047;27;20038;-71
2023/09/07 02:49:48;;;;;;;7.05;2.83;;;;;;;10.62;76.52;99873.97;5115942;27;20066;-71
2023/09/07 02:52:14;;;;;;;3.15;2.13;;;;;;;10.63;76.22;99874.81;5115510;27;20038;-71
2023/09/07 02:54:39;;;;;;;5.63;2.00;;;;;;;10.66;75.96;99879.94;5097497;27;20046;-71
2023/09/07 02:57:05;;;;;;;3.78;2.05;;;;;;;10.68;76.14;99889.56;5116414;27;20042;-73
2023/09/07 02:59:30;;;;;;;5.63;2.15;;;;;;;10.70;75.97;99884.13;5094141;27;20110;-73
2023/09/07 03:01:56;;;;;;;3.85;2.10;;;;;;;10.74;75.75;99885.59;5096853;27;20046;-74
2023/09/07 03:04:21;;;;;;;4.15;2.10;;;;;;;10.76;75.99;99889.03;5093972;27;20042;-74
2023/09/07 03:06:46;;;;;;;4.95;2.55;;;;;;;10.77;75.60;99888.06;5093022;27;20059;-73
2023/09/07 03:09:11;;;;;;;2.70;1.88;;;;;;;10.79;75.95;99888.81;5094006;28;20401;-72
2023/09/07 03:11:37;;;;;;;4.47;2.47;;;;;;;10.82;75.90;99884.16;5075773;28;20412;-72
2023/09/07 03:14:03;;;;;;;3.03;2.08;;;;;;;10.88;75.93;99901.53;5077037;28;20035;-74
2023/09/07 03:16:30;;;;;;;3.42;2.28;;;;;;;10.91;76.00;99901.31;5097926;28;20050;-72
2023/09/07 03:18:56;;;;;;;3.90;2.58;;;;;;;10.97;75.38;99895.56;5079311;28;20038;-72
2023/09/07 03:21:25;;;;;;;5.15;2.45;;;;;;;11.03;75.14;99905.81;5097832;27;20054;-72
2023/09/07 03:23:51;;;;;;;2.92;2.10;;;;;;;11.05;74.61;99919.91;5096649;27;20054;-72
2023/09/07 03:26:17;;;;;;;4.95;2.13;;;;;;;11.12;74.40;99902.50;5097632;28;20055;-72
2023/09/07 03:28:42;;;;;;;4.05;2.13;;;;;;;11.19;74.42;99909.09;5085074;28;20210;-73
2023/09/07 03:31:08;;;;;;;2.88;1.95;;;;;;;11.30;74.44;99916.34;5076470;28;20387;-73
2023/09/07 03:33:33;;;;;;;5.20;2.30;;;;;;;11.45;74.36;99914.44;5076243;28;20536;-73
2023/09/07 03:35:58;;;;;;;5.05;1.90;;;;;;;11.56;73.29;99930.56;5077226;28;20050;-73
2023/09/07 03:38:25;;;;;;;6.13;1.92;;;;;;;11.71;72.94;99909.91;5076109;28;20536;-73
2023/09/07 03:40:50;;;;;;;6.20;2.50;;;;;;;11.88;72.35;99910.44;5076037;28;20516;-73
2023/09/07 03:43:18;;;;;;;6.68;2.78;;;;;;;12.09;71.70;99891.13;5059846;28;20121;-73
2023/09/07 03:45:43;;;;;;;4.18;1.95;;;;;;;12.24;71.09;99914.03;5077706;28;20398;-73
2023/09/07 03:48:09;;;;;;;3.45;2.60;;;;;;;12.35;70.36;99904.25;5095689;27;20085;-73
2023/09/07 03:50:35;;;;;;;4.18;2.40;;;;;;;12.46;69.33;99916.81;5097097;27;20481;-74
2023/09/07 03:53:00;;;;;;;4.95;2.05;;;;;;;12.53;69.12;99911.88;5096749;28;20035;-74
2023/09/07 03:55:26;;;;;;;5.93;2.33;;;;;;;12.54;68.91;99911.75;5096314;27;20427;-74
2023/09/07 03:57:52;;;;;;;6.85;2.22;;;;;;;12.59;68.79;99922.97;5079998;28;20039;-74
2023/09/07 04:00:18;;;;;;;7.68;2.42;;;;;;;12.63;67.99;99923.59;5061778;28;20050;-74
2023/09/07 04:02:46;;;;;;;3.38;1.88;;;;;;;12.68;68.14;99924.09;5096242;28;20505;-73
2023/09/07 04:05:13;;;;;;;8.55;2.22;;;;;;;12.75;68.31;99938.72;5096055;28;20168;-73
2023/09/07 04:07:38;;;;;;;5.78;2.33;;;;;;;12.88;67.69;99938.63;5096160;27;20425;-73
2023/09/07 04:10:05;;;;;;;5.90;2.22;;;;;;;12.97;67.26;99900.47;5096978;27;20043;-74
2023/09/07 04:12:31;;;;;;;7.03;2.70;;;;;;;13.10;66.62;99944.03;5098313;27;20401;-73
2023/09/07 04:14:56;;;;;;;4.25;2.33;;;;;;;13.25;66.48;99934.00;5098437;27;20054;-73
2023/09/07 04:17:21;;;;;;;6.30;3.47;;;;;;;13.41;65.32;99942.56;5098354;27;20046;-73
2023/09/07 04:19:48;;;;;;;12.30;2.85;;;;;;;13.56;65.05;99945.84;5098469;27;20042;-73
2023/09/07 04:22:13;;;;;;;3.58;2.30;;;;;;;13.58;64.40;99944.75;5098314;27;20046;-73
2023/09/07 04:24:39;;;;;;;9.75;2.38;;;;;;;13.58;64.18;99942.06;5097144;27;20043;-72
2023/09/07 04:27:05;;;;;;;3.63;2.38;;;;;;;13.59;64.20;99951.81;5096588;27;20417;-73
2023/09/07 04:29:32;;;;;;;5.63;1.95;;;;;;;13.64;64.19;99955.00;5096938;27;20058;-74
2023/09/07 04:31:57;;;;;;;5.88;2.72;;;;;;;13.69;62.98;99960.81;5062393;27;20054;-74
2023/09/07 04:34:23;;;;;;;5.28;2.72;;;;;;;13.80;63.81;99971.53;5096795;27;20050;-73
2023/09/07 04:36:49;;;;;;;5.22;2.33;;;;;;;14.01;63.00;99958.25;5096657;27;20039;-75
2023/09/07 04:39:15;;;;;;;2.88;1.98;;;;;;;14.26;62.17;99966.97;5096376;27;20047;-74
2023/09/07 04:41:41;;;;;;;3.92;2.08;;;;;;;14.35;61.16;99966.22;5096673;27;20046;-74
2023/09/07 04:44:06;;;;;;;4.07;2.17;;;;;;;14.28;61.11;99960.53;5096307;27;20047;-74
2023/09/07 04:46:32;;;;;;;6.13;2.22;;;;;;;14.17;61.06;99958.72;5097885;27;20042;-75
2023/09/07 04:48:57;;;;;;;7.40;2.28;;;;;;;14.14;60.85;99964.31;5096475;27;20408;-74
2023/09/07 04:51:23;;;;;;;3.00;2.30;;;;;;;14.04;60.77;99971.41;5096062;27;20046;-74
2023/09/07 04:53:49;;;;;;;6.88;2.42;;;;;;;14.08;61.80;99974.72;5096560;27;20043;-74
2023/09/07 04:56:15;;;;;;;7.75;2.72;;;;;;;14.15;61.61;99965.19;5097667;27;20043;-73
2023/09/07 04:58:41;;;;;;;7.55;3.03;;;;;;;14.10;61.40;99973.63;5096230;27;20034;-74
2023/09/07 05:01:08;;;;;;;9.80;3.25;;;;;;;13.98;60.78;99966.56;5097507;27;20039;-75
2023/09/07 05:03:35;;;;;;;4.82;2.22;;;;;;;13.94;60.94;99973.13;5096225;27;20055;-74
2023/09/07 05:06:01;;;;;;;5.60;2.63;;;;;;;13.93;61.32;99971.41;5096238;27;20054;-74
2023/09/07 05:08:26;;;;;;;4.40;2.05;;;;;;;13.99;60.92;99973.63;5115285;27;20054;-74
2023/09/07 05:10:59;;;;;;;3.63;2.35;;;;;;;14.05;60.96;99986.53;5117792;27;20042;-74
2023/09/07 05:13:26;;;;;;;3.67;2.35;;;;;;;13.98;61.13;100001.41;5117887;27;20042;-74
2023/09/07 05:15:53;;;;;;;2.25;2.00;;;;;;;14.10;60.26;99983.47;5101190;27;20427;-74
2023/09/07 05:18:19;;;;;;;2.63;1.90;;;;;;;14.35;60.27;99977.81;5100224;27;20046;-74
2023/09/07 05:20:44;;;;;;;5.43;2.65;;;;;;;14.76;59.54;99971.75;5118238;27;20042;-74
2023/09/07 05:23:15;;;;;;;5.53;3.10;;;;;;;15.25;58.70;100005.19;5118481;27;20401;-74
2023/09/07 05:25:50;;;;;;;4.22;2.88;;;;;;;15.83;56.81;99978.69;5099627;27;20039;-73
2023/09/07 05:28:16;;;;;;;3.83;2.50;;;;;;;16.24;55.84;99975.03;5117856;27;20042;-75
2023/09/07 05:30:42;;;;;;;6.05;2.58;;;;;;;16.52;53.77;99978.75;5099234;27;20042;-74
2023/09/07 05:33:13;;;;;;;6.25;2.53;;;;;;;16.80;53.02;99979.81;5099279;27;20448;-75
2023/09/07 05:35:39;;;;;;;3.88;1.88;;;;;;;17.18;52.11;99963.63;5078248;27;20056;-73
2023/09/07 05:38:05;;;;;;;2.80;2.58;;;;;;;17.45;51.57;99981.75;5092787;27;20038;-73
2023/09/07 05:40:35;;;;;;;5.68;3.00;;;;;;;17.63;50.65;99996.19;5098555;27;20038;-73
2023/09/07 05:43:01;;;;;;;6.32;2.65;;;;;;;17.82;49.53;99972.88;5098945;27;20043;-75
2023/09/07 05:45:26;;;;;;;3.70;2.33;;;;;;;17.75;49.45;99978.84;5117330;27;20054;-71
2023/09/07 05:47:51;;;;;;;3.33;1.98;;;;;;;17.85;49.19;99977.97;5117343;27;20042;-72
2023/09/07 05:50:16;;;;;;;2.67;1.80;;;;;;;18.45;49.21;99977.38;5117412;27;20042;-73
2023/09/07 05:52:42;;;;;;;3.42;1.67;;;;;;;19.30;46.20;99972.50;5099514;27;20038;-72
2023/09/07 05:55:07;;;;;;;3.10;1.70;;;;;;;20.40;44.90;99978.91;5098972;27;20057;-73
2023/09/07 05:57:32;;;;;;;4.28;2.13;;;;;;;21.72;41.47;99955.25;5098191;27;20504;-74
2023/09/07 05:59:57;;;;;;;3.58;1.88;;;;;;;22.57;39.19;99967.16;5099584;27;20035;-74
2023/09/07 06:02:23;;;;;;;2.95;2.00;;;;;;;23.49;37.72;99957.94;5098930;27;20039;-73
2023/09/07 06:04:48;;;;;;;6.03;2.13;;;;;;;24.42;36.42;99965.63;5098429;27;20094;-73
2023/09/07 06:07:14;;;;;;;3.28;1.80;;;;;;;25.37;34.57;99967.28;5077947;27;20047;-74
2023/09/07 06:09:39;;;;;;;4.00;2.28;;;;;;;26.17;33.29;99966.81;5093555;27;20054;-69
2023/09/07 06:12:05;;;;;;;4.45;2.45;;;;;;;26.92;32.14;99966.72;5094370;27;20437;-70
2023/09/07 06:14:30;;;;;;;1.98;1.80;;;;;;;27.72;30.97;99989.53;5094197;27;20051;-70
2023/09/07 06:16:56;;;;;;;3.55;2.90;;;;;;;28.50;29.75;99962.97;5097737;27;20436;-70
2023/09/07 06:19:21;;;;;;;5.03;2.50;;;;;;;29.07;29.25;99989.50;5097433;27;20042;-70
2023/09/07 06:21:46;;;;;;;3.33;2.70;;;;;;;29.17;28.23;99980.78;5097794;27;20046;-71
2023/09/07 06:24:12;;;;;;;3.88;2.90;;;;;;;29.06;28.33;99978.75;5097311;27;20057;-70
2023/09/07 06:26:37;;;;;;;3.15;2.60;;;;;;;28.20;28.64;99970.06;5097735;27;20404;-72
2023/09/07 06:29:04;;;;;;;7.80;2.95;;;;;;;26.71;29.98;99985.97;5098244;27;20066;-72
2023/09/07 06:31:29;;;;;;;6.13;2.63;;;;;;;25.42;31.40;99995.66;5097511;27;20041;-71
2023/09/07 06:33:54;;;;;;;4.53;2.20;;;;;;;24.48;33.13;100019.38;5080940;27;20053;-72
2023/09/07 06:36:20;;;;;;;7.65;2.95;;;;;;;24.41;33.62;100001.25;5097768;27;20045;-72
2023/09/07 06:38:45;;;;;;;4.10;1.52;;;;;;;24.75;32.96;100020.53;5080219;27;20050;-72
2023/09/07 06:41:12;;;;;;;2.25;1.85;;;;;;;25.41;32.80;100015.78;5080643;27;20051;-73
2023/09/07 06:43:38;;;;;;;1.60;1.50;;;;;;;25.90;31.77;99993.97;5097427;27;20043;-72
2023/09/07 06:46:07;;;;;;;2.10;1.90;;;;;;;27.03;30.05;99996.19;5097435;27;20049;-73
2023/09/07 06:48:33;;;;;;;2.72;2.20;;;;;;;27.43;29.12;99986.13;5097448;27;20053;-72
2023/09/07 06:51:06;;;;;;;2.45;1.88;;;;;;;28.10;28.15;99997.91;5115947;27;20034;-73
2023/09/07 06:53:32;;;;;;;;;;;;;;;29.43;28.02;99988.03;5098301;27;20046;-74
2023/09/07 06:55:58;;;;;;;2.67;2.40;;;;;;;29.80;26.56;100005.44;5097289;27;19914;-73
2023/09/07 06:58:24;;;;;;;2.45;2.08;;;;;;;30.94;25.52;99980.84;5097366;27;20049;-73
2023/09/07 07:00:49;;;;;;;4.40;2.50;;;;;;;31.63;24.96;99984.03;5115958;27;20031;-73
2023/09/07 07:03:14;;;;;;;4.32;2.90;;;;;;;32.54;23.68;99986.16;5116366;27;20250;-75
2023/09/07 07:05:39;;;;;;;2.83;2.50;;;;;;;33.15;22.97;99990.16;5098157;27;20046;-74
2023/09/07 07:08:05;;;;;;;2.67;2.17;;;;;;;33.58;22.41;99985.94;5098193;27;20157;-75
2023/09/07 07:10:30;;;;;;;4.63;2.80;;;;;;;33.85;21.69;99981.44;5097165;27;20050;-74
2023/09/07 07:12:55;;;;;;;3.50;2.92;;;;;;;34.40;21.21;99989.72;5115494;27;20053;-76
2023/09/07 07:15:20;;;;;;;2.35;2.25;;;;;;;35.00;20.83;99983.22;5097099;27;20039;-76
2023/09/07 07:17:46;;;;;;;3.90;2.53;;;;;;;35.82;20.13;99990.38;5097655;27;20043;-74
2023/09/07 07:20:12;;;;;;;3.80;3.42;;;;;;;36.51;19.35;99987.47;5115884;27;20030;-74
2023/09/07 07:22:37;;;;;;;5.72;3.65;;;;;;;37.18;18.70;99997.72;5080007;27;20069;-74
2023/09/07 07:25:07;;;;;;;4.85;3.17;;;;;;;37.42;18.39;99993.31;5079685;27;20063;-73
2023/09/07 07:27:33;;;;;;;6.15;3.92;;;;;;;37.86;18.21;99998.34;5097333;27;20043;-73
2023/09/07 07:29:59;;;;;;;8.15;4.60;;;;;;;37.36;18.11;100000.00;5115355;27;20046;-74
2023/09/07 07:32:24;;;;;;;3.58;3.25;;;;;;;36.35;18.74;99989.34;5096206;27;20042;-73
2023/09/07 07:34:49;;;;;;;10.13;3.80;;;;;;;36.13;18.77;99992.25;5096625;27;20035;-74
2023/09/07 07:37:15;;;;;;;3.05;2.83;;;;;;;36.44;18.60;100015.50;5096946;27;20600;-74
2023/09/07 07:39:40;;;;;;;5.72;3.08;;;;;;;36.46;18.33;99976.38;5096826;27;20035;-75
2023/09/07 07:42:06;;;;;;;3.58;2.88;;;;;;;37.05;17.84;99982.38;5096868;27;20042;-74
2023/09/07 07:44:31;;;;;;;5.57;3.72;;;;;;;37.70;17.51;100017.81;5096738;27;20061;-74
2023/09/07 07:46:57;;;;;;;4.00;3.60;;;;;;;38.36;17.04;99978.75;5075923;28;20054;-74
2023/09/07 07:49:22;;;;;;;5.45;3.70;;;;;;;38.76;16.46;99982.50;5059080;28;20043;-75
2023/09/07 07:51:48;;;;;;;6.95;3.90;;;;;;;39.15;15.98;99977.00;5076252;28;20058;-74
2023/09/07 07:54:13;;;;;;;6.85;5.20;;;;;;;39.62;15.75;99965.16;5076263;28;20039;-74
2023/09/07 07:56:39;;;;;;;5.53;3.63;;;;;;;39.84;15.38;99976.75;5059257;28;20050;-75
2023/09/07 07:59:05;;;;;;;3.60;3.30;;;;;;;40.48;15.02;99977.44;5076297;27;20413;-74
2023/09/07 08:01:30;;;;;;;6.22;4.07;;;;;;;40.74;14.83;99970.41;5079346;27;20039;-73
2023/09/07 08:03:57;;;;;;;4.07;3.78;;;;;;;40.96;14.66;99972.59;5100297;27;20043;-74
2023/09/07 08:06:24;;;;;;;5.75;4.22;;;;;;;40.55;14.94;99963.91;5100695;27;20057;-74
2023/09/07 08:08:50;;;;;;;4.95;3.67;;;;;;;40.36;14.87;99961.09;5100535;27;20051;-76
2023/09/07 08:11:16;;;;;;;4.57;4.20;;;;;;;40.58;14.63;99952.13;5100508;27;20042;-73
2023/09/07 08:13:46;;;;;;;8.52;3.90;;;;;;;41.24;14.31;99952.03;5100473;27;20050;-75
2023/09/07 08:16:12;;;;;;;8.70;4.40;;;;;;;41.56;14.15;99975.59;5083518;27;20034;-74
2023/09/07 08:18:37;;;;;;;4.80;4.20;;;;;;;40.88;14.41;99964.88;5100260;27;20054;-73
2023/09/07 08:21:03;;;;;;;4.93;3.80;;;;;;;39.77;15.06;99965.03;5096677;27;20039;-72
2023/09/07 08:23:28;;;;;;;4.18;3.80;;;;;;;38.97;15.29;99928.31;5113655;27;20043;-73
2023/09/07 08:25:54;;;;;;;8.27;3.78;;;;;;;38.96;15.37;99946.13;5099470;27;20058;-74
2023/09/07 08:28:22;;;;;;;6.15;3.30;;;;;;;37.95;15.65;99971.59;5099974;27;20046;-74
2023/09/07 08:30:54;;;;;;;4.10;3.80;;;;;;;37.31;16.42;99981.34;5118728;27;20045;-75
2023/09/07 08:33:22;;;;;;;4.70;3.05;;;;;;;38.41;16.17;99975.94;5117994;27;20047;-74
2023/09/07 08:35:52;;;;;;;5.15;3.35;;;;;;;39.89;14.73;99951.53;5111918;27;20045;-75
2023/09/07 08:38:19;;;;;;;6.90;3.95;;;;;;;41.08;13.94;99952.56;5118672;27;20053;-75
2023/09/07 08:40:46;;;;;;;7.07;4.47;;;;;;;40.66;13.93;99942.25;5065301;27;20054;-75
2023/09/07 08:43:12;;;;;;;5.38;4.00;;;;;;;39.77;14.62;99942.69;5118462;27;20039;-75
2023/09/07 08:45:44;;;;;;;9.60;4.22;;;;;;;40.13;14.23;99945.13;5118455;27;20050;-74
2023/09/07 08:48:13;;;;;;;5.83;3.63;;;;;;;40.87;13.70;99955.66;5099847;27;20050;-74
2023/09/07 08:50:40;;;;;;;4.55;4.15;;;;;;;39.40;14.32;99945.25;5099563;27;20042;-74
2023/09/07 08:53:07;;;;;;;9.50;4.30;;;;;;;37.27;15.91;99946.84;5117933;27;20420;-76
2023/09/07 08:55:33;;;;;;;7.95;3.47;;;;;;;35.95;16.78;99939.97;5118011;27;20038;-74
2023/09/07 08:57:58;;;;;;;3.83;3.45;;;;;;;34.53;17.90;99944.19;5117999;27;20164;-73
2023/09/07 09:00:23;;;;;;;3.85;3.45;;;;;;;32.84;19.17;99939.03;5098865;27;20421;-74
2023/09/07 09:02:48;;;;;;;4.88;3.08;;;;;;;33.25;18.93;99942.53;5117968;27;20039;-74
2023/09/07 09:05:15;;;;;;;9.55;3.53;;;;;;;34.22;18.00;99912.47;5098728;27;20558;-74
2023/09/07 09:07:40;;;;;;;3.60;3.30;;;;;;;34.66;17.52;99941.00;5099797;27;20062;-76
2023/09/07 09:10:07;;;;;;;4.45;2.72;;;;;;;35.07;17.61;99942.31;5118622;27;20050;-75
2023/09/07 09:12:33;;;;;;;7.93;3.28;;;;;;;34.44;17.82;99901.44;5117179;27;20045;-76
2023/09/07 09:15:00;;;;;;;3.08;2.78;;;;;;;32.84;18.77;99952.84;5118078;27;20039;-75
2023/09/07 09:17:25;;;;;;;5.20;2.70;;;;;;;31.01;20.16;99956.81;5118503;27;20069;-76
2023/09/07 09:19:50;;;;;;;14.43;3.30;;;;;;;31.27;20.35;99952.81;5117880;27;20405;-75
2023/09/07 09:22:16;;;;;;;5.07;2.63;;;;;;;32.38;19.39;99956.59;5098963;27;20050;-75
2023/09/07 09:24:41;;;;;;;3.03;2.33;;;;;;;32.93;18.85;99953.28;5117911;27;20038;-76
2023/09/07 09:27:06;;;;;;;5.20;2.45;;;;;;;33.22;18.36;99949.38;5082251;27;20501;-76
2023/09/07 09:29:35;;;;;;;4.50;2.85;;;;;;;33.13;18.89;99956.41;5119310;27;20042;-76
2023/09/07 09:32:06;;;;;;;3.17;2.63;;;;;;;32.86;18.73;99972.75;5118608;27;20069;-76
2023/09/07 09:34:36;;;;;;;6.75;2.88;;;;;;;32.51;18.63;99953.50;5096708;27;20413;-72
2023/09/07 09:37:06;;;;;;;6.28;2.72;;;;;;;32.40;18.54;99946.09;5116617;27;20046;-72
2023/09/07 09:39:31;;;;;;;4.82;2.72;;;;;;;32.56;18.49;99939.00;5098564;27;20034;-71
2023/09/07 09:41:57;;;;;;;8.45;2.85;;;;;;;32.50;18.79;99921.50;5115232;27;20389;-72
2023/09/07 09:44:26;;;;;;;5.38;2.70;;;;;;;32.28;19.35;99943.38;5111566;27;20416;-73
2023/09/07 09:46:56;;;;;;;3.75;2.90;;;;;;;31.82;19.31;99944.28;5116534;27;20886;-73
2023/09/07 09:49:22;;;;;;;3.75;2.45;;;;;;;30.59;19.91;99938.56;5097123;27;20050;-74
2023/09/07 09:51:49;;;;;;;3.10;2.17;;;;;;;29.51;20.82;99952.84;5116617;27;20054;-74
2023/09/07 09:54:18;;;;;;;2.28;2.08;;;;;;;29.18;21.13;99941.28;5116458;27;20043;-74
2023/09/07 09:56:44;;;;;;;4.90;1.98;;;;;;;29.22;21.76;99954.34;5085139;27;20034;-74
2023/09/07 09:59:14;;;;;;;3.65;1.80;;;;;;;29.10;21.84;99945.16;5116271;27;20034;-73
2023/09/07 10:01:44;;;;;;;6.80;2.55;;;;;;;28.83;21.61;99943.63;5080638;27;20058;-71
2023/09/07 10:04:12;;;;;;;3.13;2.22;;;;;;;27.95;22.35;99937.00;5094490;27;20050;-71
2023/09/07 10:06:38;;;;;;;2.60;2.28;;;;;;;26.96;23.18;99934.31;5095895;27;20039;-72
2023/09/07 10:09:06;;;;;;;4.55;2.45;;;;;;;26.26;24.08;99922.69;5059982;27;20038;-72
2023/09/07 10:11:33;;;;;;;5.30;2.15;;;;;;;25.79;24.66;99949.97;5101808;27;20446;-73
2023/09/07 10:14:00;;;;;;;5.05;2.25;;;;;;;25.16;25.11;99943.59;5098023;27;20075;-73
2023/09/07 10:16:27;;;;;;;2.00;1.80;;;;;;;24.61;25.39;99950.53;5116414;27;20034;-72
2023/09/07 10:18:52;;;;;;;4.95;1.88;;;;;;;24.12;26.40;99953.06;5098167;27;20034;-74
2023/09/07 10:21:17;;;;;;;4.60;1.88;;;;;;;23.59;27.02;99949.53;5096405;27;20053;-74
2023/09/07 10:23:45;;;;;;;2.15;1.77;;;;;;;23.12;27.48;99956.09;5116302;27;20046;-75
2023/09/07 10:26:18;;;;;;;2.65;1.92;;;;;;;22.76;28.13;99977.59;5081384;27;20370;-74
2023/09/07 10:28:44;;;;;;;1.80;1.50;;;;;;;22.60;28.26;99955.06;5094752;27;20038;-72
2023/09/07 10:31:18;;;;;;;6.30;2.78;;;;;;;22.59;28.64;99958.81;5112602;27;20043;-76
2023/09/07 10:33:44;;;;;;;4.32;2.30;;;;;;;22.24;29.05;99949.31;5113474;27;20030;-76
2023/09/07 10:36:22;;;;;;;6.65;1.98;;;;;;;22.18;29.36;99950.03;5095342;27;20046;-75
2023/09/07 10:38:47;;;;;;;7.30;2.50;;;;;;;22.01;29.43;99951.97;5092940;27;20035;-72
2023/09/07 10:41:13;;;;;;;3.58;2.03;;;;;;;21.96;29.86;99949.75;5096276;27;20046;-72
2023/09/07 10:43:47;;;;;;;6.60;2.45;;;;;;;21.90;30.10;99944.16;5112575;27;20026;-73
2023/09/07 10:46:12;;;;;;;1.50;1.40;;;;;;;21.55;30.52;99948.19;5115306;27;20412;-73
2023/09/07 10:48:38;;;;;;;3.75;1.65;;;;;;;21.28;30.52;99912.28;5096914;27;20039;-72
2023/09/07 10:51:03;;;;;;;4.18;1.83;;;;;;;20.96;31.11;99956.50;5115034;27;20053;-73
2023/09/07 10:53:30;;;;;;;5.15;1.48;;;;;;;20.55;31.39;99954.72;5115253;27;20042;-71
2023/09/07 10:55:59;;;;;;;4.82;1.75;;;;;;;20.24;31.47;99965.25;5095951;27;20047;-72
2023/09/07 10:58:35;;;;;;;2.92;2.10;;;;;;;20.20;32.80;99966.63;5114533;27;20031;-73
2023/09/07 11:01:03;;;;;;;9.27;2.38;;;;;;;20.15;32.45;99971.66;5115417;27;20039;-73
2023/09/07 11:03:29;;;;;;;3.05;1.70;;;;;;;20.18;32.74;99955.09;5076522;27;20039;-72
2023/09/07 11:06:03;;;;;;;3.90;1.88;;;;;;;20.18;32.83;99963.22;5112389;27;20042;-73
2023/09/07 11:08:32;;;;;;;3.35;1.85;;;;;;;20.07;33.20;99955.38;5113613;27;20051;-71
2023/09/07 11:10:58;;;;;;;6.63;2.55;;;;;;;19.84;33.05;99949.69;5115045;27;20061;-73
2023/09/07 11:13:24;;;;;;;5.07;2.40;;;;;;;19.68;33.96;99952.31;5115318;27;20035;-74
2023/09/07 11:15:53;;;;;;;6.30;2.80;;;;;;;19.52;34.10;99951.22;5115079;27;20046;-72
2023/09/07 11:18:21;;;;;;;4.57;2.00;;;;;;;19.39;34.19;99966.13;5113246;27;20057;-74
2023/09/07 11:20:48;;;;;;;2.90;1.80;;;;;;;19.22;34.66;99967.84;5115332;27;20377;-73
2023/09/07 11:23:13;;;;;;;2.85;2.22;;;;;;;19.08;34.96;99968.41;5114428;27;20038;-72
2023/09/07 11:25:39;;;;;;;3.88;1.90;;;;;;;18.99;34.77;99959.38;5114390;27;20385;-74
2023/09/07 11:28:05;;;;;;;4.28;2.40;;;;;;;18.86;34.83;99964.31;5095493;27;20520;-71
2023/09/07 11:30:31;;;;;;;2.65;1.63;;;;;;;18.79;35.11;99957.84;5114906;27;20407;-71